Chornomors'Ke, Ukraine
Current Conditions -  °F | °C
As of 11:30 PM on Friday 21 Nov 2014 (Local Time) from URFF Reporting Station
Overcast Overcast  
Wind Chill: 30°   Ceiling: 1200
Heat Index: 39°   Visibility: 6mi
Dew Point: 36°   Wind: 18mph
Humidity: 87%   Direction: 70°ENE
Pressure: 30"   Gusts: NA
Location:  45.52°N, 32.7°E
Report Text: URFF 212030Z 07008MPS 9999 OVC012 04/02 Q1016 01250058 NOSIG
Loading
Personal Weather Stations






























Interactive Weather Map New forecast layout! Learn more

10-Day Weather Forecast

Advertisements
Track Severe Weather on mobile